Time;durP1;ratioP1;P1;durP2;ratioP2;P2;SDS_P1;SDS_P2;PMS_P1;PMS_P2;Temp;Humidity;BMP_temperature;BMP_pressure;BME280_temperature;BME280_humidity;BME280_pressure;Samples;Min_cycle;Max_cycle;Signal;HPM_P1;HPM_P2
2022/01/17 00:00:15;;;;;;;12.77;6.43;;;;;;;1.71;77.22;99485.78;5031912;28;20056;-66
2022/01/17 00:03:02;;;;;;;12.68;5.80;;;;;;;1.71;77.18;99459.97;5031901;28;20053;-67
2022/01/17 00:05:47;;;;;;;11.75;5.55;;;;;;;1.63;77.27;99467.00;5032228;28;20068;-66
2022/01/17 00:08:33;;;;;;;14.07;6.22;;;;;;;1.80;76.10;99461.47;5038003;28;20519;-66
2022/01/17 00:11:19;;;;;;;12.13;5.00;;;;;;;1.72;76.66;99453.91;5012350;28;20056;-65
2022/01/17 00:14:11;;;;;;;16.08;6.22;;;;;;;1.56;76.75;99471.44;5012324;28;20109;-65
2022/01/17 00:17:09;;;;;;;16.70;5.72;;;;;;;1.49;77.01;99450.06;5024867;28;20048;-66
2022/01/17 00:19:56;;;;;;;11.70;5.75;;;;;;;1.52;77.25;99469.81;5012301;28;20049;-66
2022/01/17 00:22:44;;;;;;;11.77;5.72;;;;;;;1.46;77.32;99466.47;5025088;28;20509;-66
2022/01/17 00:25:30;;;;;;;13.15;5.70;;;;;;;1.37;77.66;99451.16;5011295;28;20061;-66
2022/01/17 00:28:15;;;;;;;15.32;6.70;;;;;;;1.15;78.32;99438.66;5011201;28;20532;-65
2022/01/17 00:31:04;;;;;;;11.25;5.30;;;;;;;1.23;78.07;99425.59;5012270;28;20057;-66
2022/01/17 00:33:50;;;;;;;13.88;6.15;;;;;;;1.26;78.28;99451.34;5014160;28;20587;-66
2022/01/17 00:36:36;;;;;;;13.90;6.05;;;;;;;1.18;78.82;99438.59;5015847;28;20053;-65
2022/01/17 00:39:22;;;;;;;13.35;5.55;;;;;;;1.18;79.11;99430.00;5016010;28;20057;-65
2022/01/17 00:42:08;;;;;;;10.85;5.13;;;;;;;1.04;79.34;99413.06;5015858;28;20056;-65
2022/01/17 00:44:53;;;;;;;11.38;5.30;;;;;;;0.98;79.63;99416.59;5015838;28;20504;-66
2022/01/17 00:47:40;;;;;;;15.75;5.95;;;;;;;1.09;79.59;99439.63;5042631;28;20056;-68
2022/01/17 00:50:27;;;;;;;13.45;6.25;;;;;;;1.07;79.92;99435.38;5028038;28;20053;-65
2022/01/17 00:53:12;;;;;;;11.85;5.53;;;;;;;1.05;80.00;99435.41;5026179;28;20048;-66
2022/01/17 00:55:58;;;;;;;13.65;6.18;;;;;;;0.93;80.72;99436.47;5035527;28;20052;-66
2022/01/17 00:58:44;;;;;;;12.85;5.45;;;;;;;1.02;79.55;99399.34;5034131;28;20056;-66
2022/01/17 01:01:30;;;;;;;13.45;5.80;;;;;;;1.17;79.45;99428.31;5035188;28;20532;-65
2022/01/17 01:04:16;;;;;;;16.23;6.60;;;;;;;0.76;79.87;99366.25;5035273;28;20049;-64
2022/01/17 01:07:02;;;;;;;12.20;5.75;;;;;;;1.07;79.93;99417.31;5035501;28;20096;-66
2022/01/17 01:10:06;;;;;;;12.00;5.82;;;;;;;1.07;80.14;99430.22;5039933;28;20056;-66
2022/01/17 01:12:52;;;;;;;16.23;7.10;;;;;;;1.01;80.30;99409.69;5036540;28;20052;-65
2022/01/17 01:27:42;;;;;;;16.67;7.43;;;;;;;1.38;80.03;99439.09;5039761;28;20053;-66
2022/01/17 01:30:29;;;;;;;13.32;6.55;;;;;;;1.31;80.11;99412.53;5033765;28;20076;-66
2022/01/17 01:33:22;;;;;;;13.50;6.05;;;;;;;1.39;80.04;99435.66;5034554;28;20053;-65
2022/01/17 01:36:17;;;;;;;13.30;7.00;;;;;;;1.30;79.80;99428.91;5034625;28;20049;-65
2022/01/17 01:39:06;;;;;;;15.23;7.53;;;;;;;1.36;80.08;99449.44;5034735;28;20060;-66
2022/01/17 01:41:52;;;;;;;14.55;6.63;;;;;;;1.38;80.10;99442.53;5040307;28;20053;-65
2022/01/17 01:44:38;;;;;;;14.60;6.07;;;;;;;1.36;80.08;99441.69;5040074;28;20414;-66
2022/01/17 01:47:26;;;;;;;11.68;6.30;;;;;;;1.37;80.19;99438.25;5047385;28;20519;-66
2022/01/17 01:50:13;;;;;;;12.60;5.32;;;;;;;1.34;79.74;99397.84;5040846;28;20056;-66
2022/01/17 01:52:58;;;;;;;13.98;6.38;;;;;;;1.26;80.49;99422.13;5033894;28;20053;-66
2022/01/17 01:55:45;;;;;;;13.63;5.88;;;;;;;1.35;80.39;99429.69;5040351;28;20064;-65
2022/01/17 01:58:31;;;;;;;13.00;6.22;;;;;;;1.25;80.93;99446.22;5033378;28;20079;-65
2022/01/17 02:01:16;;;;;;;12.70;6.45;;;;;;;1.49;79.98;99442.31;5034081;28;20055;-66
2022/01/17 02:04:03;;;;;;;13.25;6.03;;;;;;;1.38;80.42;99446.84;5034211;28;20048;-66
2022/01/17 02:06:50;;;;;;;14.63;7.97;;;;;;;1.22;80.75;99422.16;5039031;28;20048;-65
2022/01/17 02:09:37;;;;;;;14.35;6.95;;;;;;;1.32;80.64;99448.66;5034190;28;20061;-65
2022/01/17 02:12:28;;;;;;;14.40;6.65;;;;;;;1.35;80.60;99429.69;5033946;28;20515;-66
2022/01/17 02:15:17;;;;;;;14.82;7.00;;;;;;;1.34;80.55;99421.06;5034053;28;20056;-66
2022/01/17 02:18:03;;;;;;;13.45;6.20;;;;;;;1.31;80.97;99422.88;5019024;28;20423;-65
2022/01/17 02:21:10;;;;;;;11.80;6.00;;;;;;;1.27;80.67;99413.50;5033281;28;20052;-65
2022/01/17 02:23:54;;;;;;;13.00;6.05;;;;;;;1.31;80.82;99412.53;5033654;28;20053;-65
2022/01/17 02:26:40;;;;;;;13.75;6.75;;;;;;;1.24;80.77;99396.31;5052191;28;20117;-65
2022/01/17 02:29:26;;;;;;;14.27;6.38;;;;;;;1.28;81.12;99395.38;5033498;28;20068;-66
2022/01/17 02:32:12;;;;;;;10.45;4.82;;;;;;;1.44;80.44;99375.25;5033666;28;20163;-66
2022/01/17 02:35:18;;;;;;;11.80;6.13;;;;;;;1.23;80.70;99319.75;5013703;28;20045;-66
2022/01/17 02:38:04;;;;;;;9.90;4.68;;;;;;;1.53;79.77;99343.22;5013635;28;20056;-66
2022/01/17 02:40:50;;;;;;;13.18;6.40;;;;;;;1.53;79.59;99332.91;5013497;28;20052;-66
2022/01/17 02:43:36;;;;;;;12.27;5.68;;;;;;;1.64;79.13;99345.56;5013887;28;20053;-66
2022/01/17 02:46:25;;;;;;;12.85;6.45;;;;;;;1.58;79.26;99341.38;5013532;28;20516;-66
2022/01/17 02:49:12;;;;;;;12.38;5.90;;;;;;;1.60;78.97;99323.25;5012522;28;20057;-65
2022/01/17 02:51:58;;;;;;;12.57;5.93;;;;;;;1.55;79.16;99336.28;5013502;28;20048;-65
2022/01/17 02:54:44;;;;;;;13.32;6.18;;;;;;;1.56;79.32;99342.31;5013521;28;20508;-65
2022/01/17 02:57:33;;;;;;;13.63;5.97;;;;;;;1.63;78.82;99333.53;5013348;28;20052;-66
2022/01/17 03:00:19;;;;;;;10.32;5.43;;;;;;;1.67;78.58;99329.13;5013325;28;20064;-65
2022/01/17 03:03:08;;;;;;;12.82;5.88;;;;;;;1.72;78.45;99329.88;5019171;28;20072;-66
2022/01/17 03:05:58;;;;;;;12.65;5.80;;;;;;;1.83;77.81;99317.56;5012968;28;20061;-65
2022/01/17 03:08:45;;;;;;;14.02;5.63;;;;;;;1.91;77.44;99335.47;5013169;28;20535;-66
2022/01/17 03:11:31;;;;;;;12.73;5.57;;;;;;;1.78;77.64;99321.16;5012820;28;20115;-65
2022/01/17 03:14:16;;;;;;;12.00;4.95;;;;;;;2.03;76.95;99341.22;5026179;28;20141;-64
2022/01/17 03:17:03;;;;;;;12.90;5.07;;;;;;;1.90;77.17;99333.78;5012866;28;20053;-67
2022/01/17 03:19:48;;;;;;;13.05;6.03;;;;;;;1.82;77.79;99333.09;5012581;28;20053;-66
2022/01/17 03:22:34;;;;;;;10.70;5.43;;;;;;;1.99;76.64;99334.44;5013159;28;20072;-66
2022/01/17 03:25:20;;;;;;;9.10;4.28;;;;;;;2.01;76.58;99336.09;5013088;28;20049;-65
2022/01/17 03:28:06;;;;;;;11.10;4.93;;;;;;;1.99;76.53;99337.88;5031639;28;20072;-64
2022/01/17 03:30:54;;;;;;;7.82;4.25;;;;;;;1.89;76.73;99301.06;5018465;28;20057;-65
2022/01/17 03:33:39;;;;;;;7.35;3.60;;;;;;;2.07;75.96;99312.69;5012750;28;20092;-65
2022/01/17 03:36:26;;;;;;;7.60;3.42;;;;;;;2.01;75.10;99270.66;5012994;28;20049;-66
2022/01/17 03:39:11;;;;;;;6.85;2.92;;;;;;;2.20;74.29;99279.59;5018097;28;20064;-66
2022/01/17 03:41:57;;;;;;;7.72;3.67;;;;;;;2.39;73.61;99283.44;5012664;28;20393;-66
2022/01/17 03:44:43;;;;;;;7.85;3.67;;;;;;;2.06;74.22;99282.56;5045667;28;20393;-66
2022/01/17 03:47:29;;;;;;;8.23;3.60;;;;;;;2.12;74.36;99276.41;5018682;28;20053;-66
2022/01/17 03:50:18;;;;;;;11.32;4.10;;;;;;;1.96;74.50;99281.06;5012643;28;20049;-65
2022/01/17 03:53:04;;;;;;;7.80;3.45;;;;;;;2.05;74.69;99280.88;5012545;28;20053;-65
2022/01/17 03:55:51;;;;;;;7.18;3.53;;;;;;;1.97;75.00;99283.63;5012156;28;20083;-65
2022/01/17 03:58:37;;;;;;;10.38;4.25;;;;;;;1.95;75.42;99288.00;5023337;28;20056;-65
2022/01/17 04:01:23;;;;;;;8.50;4.57;;;;;;;1.94;76.08;99280.28;5031005;28;20053;-65
2022/01/17 04:04:09;;;;;;;7.03;3.50;;;;;;;1.91;76.09;99277.78;5032119;28;20060;-64
2022/01/17 04:06:54;;;;;;;8.93;4.15;;;;;;;1.95;76.51;99284.56;5047762;28;20080;-65
2022/01/17 04:09:40;;;;;;;8.18;4.60;;;;;;;1.95;76.67;99295.75;5051401;28;20051;-65
2022/01/17 04:12:26;;;;;;;9.18;4.50;;;;;;;1.94;76.82;99252.69;5032735;28;20406;-64
2022/01/17 04:15:13;;;;;;;6.60;3.45;;;;;;;2.07;76.77;99288.59;5029047;28;20429;-65
2022/01/17 04:17:59;;;;;;;8.35;4.40;;;;;;;2.02;77.23;99280.94;5041389;28;20048;-66
2022/01/17 04:20:45;;;;;;;8.75;4.68;;;;;;;2.13;77.05;99298.75;5051559;28;20044;-66
2022/01/17 04:23:31;;;;;;;9.40;5.03;;;;;;;2.18;78.67;99303.81;5055870;28;20051;-44
2022/01/17 04:26:16;;;;;;;8.57;3.88;;;;;;;2.42;78.82;99299.75;5043078;28;20516;-65
2022/01/17 04:29:02;;;;;;;9.57;3.90;;;;;;;2.27;77.40;99298.41;5031972;28;20168;-65
2022/01/17 04:31:48;;;;;;;9.60;5.28;;;;;;;2.28;77.93;99305.28;5036811;28;20048;-65
2022/01/17 04:34:34;;;;;;;8.23;4.65;;;;;;;2.24;77.03;99313.16;5032010;28;20523;-65
2022/01/17 04:37:20;;;;;;;8.00;3.67;;;;;;;2.32;77.46;99314.66;5031880;28;20052;-65
2022/01/17 04:40:07;;;;;;;10.52;4.97;;;;;;;2.24;76.82;99315.75;5030816;28;20056;-64
2022/01/17 04:42:55;;;;;;;8.57;4.07;;;;;;;2.33;76.15;99308.59;5032054;28;20056;-64
2022/01/17 04:45:41;;;;;;;9.50;4.65;;;;;;;2.34;75.78;99304.28;5031029;28;20061;-65
2022/01/17 04:48:27;;;;;;;7.93;3.63;;;;;;;2.49;75.41;99300.44;5031850;28;20508;-65
2022/01/17 04:51:13;;;;;;;9.48;5.18;;;;;;;2.39;75.46;99319.66;5030705;28;20049;-64
2022/01/17 04:54:21;;;;;;;17.60;4.15;;;;;;;2.36;75.72;99324.91;5036695;28;20056;-65
2022/01/17 04:57:04;;;;;;;9.90;4.15;;;;;;;2.36;75.66;99319.75;5031503;28;20048;-65
2022/01/17 04:59:50;;;;;;;7.13;3.38;;;;;;;2.50;75.50;99320.22;5031362;28;20052;-65
2022/01/17 05:02:36;;;;;;;8.50;3.90;;;;;;;2.51;75.47;99331.44;5030751;28;20057;-66
2022/01/17 05:05:22;;;;;;;7.78;3.78;;;;;;;2.40;75.76;99329.97;5030874;28;20056;-66
2022/01/17 05:08:08;;;;;;;7.30;4.25;;;;;;;2.32;75.95;99334.47;5031626;28;20084;-66
2022/01/17 05:10:55;;;;;;;6.07;3.20;;;;;;;2.51;75.26;99327.13;5031454;28;20128;-66
2022/01/17 05:13:46;;;;;;;8.15;3.53;;;;;;;2.55;76.23;99330.44;5031552;28;20417;-65
2022/01/17 05:16:36;;;;;;;8.60;4.57;;;;;;;2.37;76.27;99332.63;5029943;28;20160;-64
2022/01/17 05:22:31;;;;;;;6.63;3.40;;;;;;;2.52;76.48;99327.94;5035446;28;20056;-65
2022/01/17 05:25:17;;;;;;;10.35;4.22;;;;;;;2.38;76.61;99318.84;5049809;28;20515;-65
2022/01/17 05:28:03;;;;;;;8.55;3.65;;;;;;;2.48;75.52;99316.00;5052354;28;20060;-64
2022/01/17 05:30:49;;;;;;;8.07;3.85;;;;;;;2.54;75.25;99324.44;5050798;28;20041;-65
2022/01/17 05:33:42;;;;;;;6.18;3.05;;;;;;;2.57;75.37;99324.38;5045425;28;20420;-65
2022/01/17 05:36:35;;;;;;;9.18;3.85;;;;;;;2.58;75.48;99327.78;5034171;28;20048;-63
2022/01/17 05:39:21;;;;;;;9.05;3.78;;;;;;;2.99;81.51;99330.13;5038968;28;20053;-66
2022/01/17 05:42:08;;;;;;;5.57;3.45;;;;;;;2.82;77.01;99330.63;5064533;28;20056;-66
2022/01/17 05:44:53;;;;;;;8.02;3.33;;;;;;;2.63;76.91;99335.44;5034964;28;20064;-65
2022/01/17 05:47:39;;;;;;;10.25;4.22;;;;;;;2.46;76.38;99309.09;5034091;28;20056;-61
2022/01/17 05:50:25;;;;;;;8.45;4.35;;;;;;;2.48;76.41;99339.28;5034427;28;20075;-60
2022/01/17 05:53:11;;;;;;;6.82;3.58;;;;;;;2.44;76.31;99318.66;5038152;28;20060;-61
2022/01/17 05:55:57;;;;;;;7.57;3.95;;;;;;;2.58;77.32;99345.88;5014293;28;20060;-63
2022/01/17 05:58:43;;;;;;;7.47;3.53;;;;;;;2.65;78.14;99351.75;5028724;28;20407;-64
2022/01/17 06:01:29;;;;;;;5.68;3.30;;;;;;;2.68;77.04;99342.19;5034202;28;20060;-66
2022/01/17 06:04:15;;;;;;;6.53;3.85;;;;;;;2.77;76.78;99354.03;5033278;28;20061;-65
2022/01/17 06:07:02;;;;;;;8.48;4.00;;;;;;;2.79;75.92;99351.41;5034193;28;20401;-64
2022/01/17 06:09:48;;;;;;;8.77;4.32;;;;;;;2.78;75.99;99344.50;5032728;28;20416;-65
2022/01/17 06:12:33;;;;;;;7.82;3.15;;;;;;;2.79;76.21;99333.28;5038527;28;20052;-67
2022/01/17 06:15:19;;;;;;;10.13;3.97;;;;;;;2.89;76.73;99316.59;5032431;28;20052;-61
2022/01/17 06:18:05;;;;;;;7.57;3.33;;;;;;;2.93;76.52;99296.66;5032046;28;20132;-65
2022/01/17 06:20:51;;;;;;;7.97;4.10;;;;;;;2.85;75.89;99307.22;5031984;28;20049;-63
2022/01/17 06:23:37;;;;;;;8.32;4.18;;;;;;;2.88;76.15;99306.28;5032455;28;20048;-62
2022/01/17 06:26:23;;;;;;;6.50;3.47;;;;;;;2.90;75.86;99291.56;5033770;28;20527;-64
2022/01/17 06:29:10;;;;;;;5.90;3.30;;;;;;;3.06;76.04;99294.56;5033682;28;20057;-64
2022/01/17 06:31:56;;;;;;;10.07;4.15;;;;;;;2.79;76.51;99276.34;5032159;28;20049;-65
2022/01/17 06:34:42;;;;;;;8.65;3.97;;;;;;;3.06;76.02;99298.00;5034055;28;20421;-63
2022/01/17 06:37:27;;;;;;;7.50;3.75;;;;;;;2.90;76.07;99289.84;5033469;28;20512;-62
2022/01/17 06:40:14;;;;;;;7.35;3.47;;;;;;;3.06;76.21;99302.34;5038287;28;20048;-65
2022/01/17 06:43:00;;;;;;;7.30;4.05;;;;;;;3.06;75.94;99297.16;5033063;28;20048;-66
2022/01/17 06:45:45;;;;;;;7.90;3.70;;;;;;;3.15;75.95;99302.06;5031950;28;20512;-64
2022/01/17 06:48:31;;;;;;;7.03;3.53;;;;;;;3.16;75.85;99327.06;5032395;28;20071;-65
2022/01/17 06:51:17;;;;;;;7.50;3.85;;;;;;;3.04;76.58;99315.31;5031475;28;20061;-66
2022/01/17 06:54:03;;;;;;;7.63;3.88;;;;;;;3.26;75.55;99319.88;5031392;28;20504;-63
2022/01/17 06:56:49;;;;;;;8.43;4.28;;;;;;;3.01;76.65;99330.09;5033247;28;20053;-63
2022/01/17 06:59:35;;;;;;;11.85;5.07;;;;;;;-148.16;100.00;58328.31;5033089;28;20064;-63
2022/01/17 07:02:21;;;;;;;9.13;5.00;;;;;;;-148.16;100.00;58328.31;5039286;28;20046;-63
2022/01/17 07:05:07;;;;;;;9.50;5.10;;;;;;;-148.16;100.00;58328.31;5031981;28;20042;-64
2022/01/17 07:07:54;;;;;;;8.93;4.43;;;;;;;-148.16;100.00;58328.31;5031542;28;20053;-69
2022/01/17 07:10:40;;;;;;;9.10;4.72;;;;;;;-148.16;100.00;58328.31;5031267;28;20045;-67
2022/01/17 07:13:26;;;;;;;11.75;5.88;;;;;;;-148.16;100.00;58328.31;5032272;28;20125;-68
2022/01/17 07:16:13;;;;;;;10.63;5.18;;;;;;;-148.16;100.00;58328.31;5035660;28;20045;-68
2022/01/17 07:18:59;;;;;;;12.38;5.15;;;;;;;-148.16;100.00;58328.31;5028446;28;20049;-67
2022/01/17 07:21:45;;;;;;;10.48;5.55;;;;;;;-148.16;100.00;58328.31;5030587;28;20037;-67
2022/01/17 07:24:31;;;;;;;9.95;5.22;;;;;;;-148.16;100.00;58328.31;5031703;28;20374;-67
2022/01/17 07:27:17;;;;;;;12.55;6.03;;;;;;;-148.16;100.00;58328.31;5031813;28;20049;-66
2022/01/17 07:30:06;;;;;;;9.65;4.63;;;;;;;-148.16;100.00;58328.31;5032770;28;20045;-65
2022/01/17 07:32:53;;;;;;;10.70;4.85;;;;;;;-148.16;100.00;58328.31;5023186;28;20050;-63
2022/01/17 07:35:39;;;;;;;8.95;4.85;;;;;;;-148.16;100.00;58328.31;5021208;28;20037;-67
2022/01/17 07:38:25;;;;;;;14.43;6.20;;;;;;;-148.16;100.00;58328.31;5029128;28;20045;-69
2022/01/17 07:41:11;;;;;;;7.68;4.13;;;;;;;-148.16;100.00;58328.31;5031703;28;20493;-67
2022/01/17 07:43:58;;;;;;;10.65;5.10;;;;;;;-148.16;100.00;58328.31;5028714;28;20049;-70
2022/01/17 07:46:55;;;;;;;7.75;4.57;;;;;;;-148.16;100.00;58328.31;5030401;28;20034;-71
2022/01/17 07:49:42;;;;;;;10.98;5.07;;;;;;;-148.16;100.00;58328.31;5030691;28;20396;-69
2022/01/17 07:52:28;;;;;;;12.30;5.20;;;;;;;-148.16;100.00;58328.31;5029009;28;20426;-69
2022/01/17 07:55:15;;;;;;;12.65;6.40;;;;;;;-148.16;100.00;58328.31;5029099;28;20042;-69
2022/01/17 07:58:01;;;;;;;9.25;5.00;;;;;;;-148.16;100.00;58328.31;5014085;28;20038;-66
2022/01/17 08:00:48;;;;;;;11.02;5.45;;;;;;;-148.16;100.00;58328.31;5031958;28;20042;-68
2022/01/17 08:03:35;;;;;;;10.77;5.18;;;;;;;-148.16;100.00;58328.31;5032175;28;20069;-67
2022/01/17 08:06:21;;;;;;;10.90;5.15;;;;;;;-148.16;100.00;58328.31;5032241;28;20050;-67
2022/01/17 08:09:14;;;;;;;13.95;6.10;;;;;;;-148.16;100.00;58328.31;5031911;28;20046;-64
2022/01/17 08:12:01;;;;;;;10.95;5.28;;;;;;;-148.16;100.00;58328.31;5031080;28;20045;-63
2022/01/17 08:14:47;;;;;;;12.50;5.78;;;;;;;-148.16;100.00;58328.31;5031788;28;20041;-66
2022/01/17 08:17:33;;;;;;;11.38;5.65;;;;;;;-148.16;100.00;58328.31;5029751;28;20034;-65
2022/01/17 08:20:20;;;;;;;9.88;4.97;;;;;;;-148.16;100.00;58328.31;5030852;28;20472;-64
2022/01/17 08:23:06;;;;;;;11.43;6.00;;;;;;;-148.16;100.00;58328.31;5029420;28;20045;-65
2022/01/17 08:25:51;;;;;;;11.90;5.93;;;;;;;-148.16;100.00;58328.31;5030930;28;20037;-65
2022/01/17 08:28:37;;;;;;;14.32;5.50;;;;;;;-148.16;100.00;58328.31;5033694;28;20129;-64
2022/01/17 08:31:23;;;;;;;10.63;4.30;;;;;;;-148.16;100.00;58328.31;5031004;28;20489;-64
2022/01/17 08:34:11;;;;;;;11.38;5.80;;;;;;;-148.16;100.00;58328.31;5032448;28;20042;-64
2022/01/17 08:36:57;;;;;;;11.75;6.45;;;;;;;-148.16;100.00;58328.31;5029435;28;20457;-65
2022/01/17 08:39:43;;;;;;;10.57;4.22;;;;;;;-148.16;100.00;58328.31;5029593;28;20049;-64
2022/01/17 08:42:30;;;;;;;12.38;6.05;;;;;;;-148.16;100.00;58328.31;5031143;28;20049;-65
2022/01/17 08:45:18;;;;;;;10.75;5.70;;;;;;;-148.16;100.00;58328.31;5031291;28;20045;-65
2022/01/17 08:48:05;;;;;;;10.43;5.45;;;;;;;-148.16;100.00;58328.31;5036379;28;20045;-65
2022/01/17 08:50:51;;;;;;;10.32;5.22;;;;;;;-148.16;100.00;58328.31;5030623;28;20041;-65
2022/01/17 08:53:36;;;;;;;9.35;5.00;;;;;;;-148.16;100.00;58328.31;5026548;28;20038;-65
2022/01/17 08:56:22;;;;;;;9.10;5.05;;;;;;;-148.16;100.00;58328.31;5035500;28;20046;-65
2022/01/17 08:59:08;;;;;;;10.27;5.03;;;;;;;-148.16;100.00;58328.31;5032443;28;20045;-64
2022/01/17 09:01:54;;;;;;;10.35;4.80;;;;;;;-148.16;100.00;58328.31;5040262;28;20049;-64
2022/01/17 09:04:42;;;;;;;12.48;5.82;;;;;;;-148.16;100.00;58328.31;5034653;28;20153;-65
2022/01/17 09:07:28;;;;;;;10.20;5.55;;;;;;;-148.16;100.00;58328.31;5034707;28;20053;-64
2022/01/17 09:10:15;;;;;;;11.25;6.28;;;;;;;-148.16;100.00;58328.31;5035194;28;20049;-64
2022/01/17 09:13:01;;;;;;;10.30;4.65;;;;;;;-148.16;100.00;58328.31;5034271;28;20041;-65
2022/01/17 09:15:47;;;;;;;14.10;5.20;;;;;;;-148.16;100.00;58328.31;5033690;28;20094;-65
2022/01/17 09:18:32;;;;;;;8.13;4.05;;;;;;;-148.16;100.00;58328.31;5034890;28;20049;-65
2022/01/17 09:21:19;;;;;;;9.73;5.28;;;;;;;-148.16;100.00;58328.31;5025935;28;20038;-64
2022/01/17 09:24:05;;;;;;;9.68;5.30;;;;;;;-148.16;100.00;58328.31;5034092;28;20442;-65
2022/01/17 09:26:50;;;;;;;7.95;4.18;;;;;;;-148.16;100.00;58328.31;5034931;28;20053;-64
2022/01/17 09:29:36;;;;;;;8.45;4.80;;;;;;;-148.16;100.00;58328.31;5034582;28;20053;-64
2022/01/17 09:32:22;;;;;;;7.82;3.85;;;;;;;-148.16;100.00;58328.31;5033666;28;20408;-63
2022/01/17 09:35:13;;;;;;;7.55;3.40;;;;;;;-148.16;100.00;58328.31;5033753;28;20041;-62
2022/01/17 09:37:59;;;;;;;13.85;4.50;;;;;;;-148.16;100.00;58328.31;5039353;28;20050;-63
2022/01/17 09:40:45;;;;;;;8.93;4.43;;;;;;;-148.16;100.00;58328.31;5033464;28;20057;-61
2022/01/17 09:43:31;;;;;;;7.88;3.67;;;;;;;-148.16;100.00;58328.31;5033336;28;20054;-65
2022/01/17 09:46:21;;;;;;;8.32;4.07;;;;;;;-148.16;100.00;58328.31;5020440;28;20045;-64
2022/01/17 09:49:20;;;;;;;4.05;2.97;;;;;;;-148.16;100.00;58328.31;5027091;28;20053;-62
2022/01/17 09:55:21;;;;;;;7.38;4.00;;;;;;;-148.16;100.00;58328.31;5032124;28;20037;-64
2022/01/17 09:58:10;;;;;;;8.60;4.40;;;;;;;-148.16;100.00;58328.31;5038605;28;20053;-61
2022/01/17 10:00:55;;;;;;;5.25;3.33;;;;;;;-148.16;100.00;58328.31;5032119;28;20050;-63
2022/01/17 10:03:41;;;;;;;6.53;3.65;;;;;;;-148.16;100.00;58328.31;5032918;28;20041;-64
2022/01/17 10:06:27;;;;;;;6.28;3.20;;;;;;;-148.16;100.00;58328.31;5032628;28;20049;-63
2022/01/17 10:09:21;;;;;;;6.30;3.63;;;;;;;-148.16;100.00;58328.31;5031777;28;20049;-65
2022/01/17 10:12:15;;;;;;;5.05;2.78;;;;;;;-148.16;100.00;58328.31;5032321;28;20064;-63
2022/01/17 10:15:05;;;;;;;3.53;2.08;;;;;;;-148.16;100.00;58328.31;5024949;28;20053;-62
2022/01/17 10:17:56;;;;;;;7.47;3.00;;;;;;;-148.16;100.00;58328.31;5034087;28;20473;-63
2022/01/17 10:20:53;;;;;;;5.95;3.10;;;;;;;-148.16;100.00;58328.31;5032742;28;20037;-62
2022/01/17 10:35:38;;;;;;;6.20;2.65;;;;;;;-148.16;100.00;58328.31;5049136;28;20041;-67
2022/01/17 10:38:27;;;;;;;7.97;3.38;;;;;;;-148.16;100.00;58328.31;5031818;28;20042;-66
2022/01/17 10:41:15;;;;;;;6.03;3.00;;;;;;;-148.16;100.00;58328.31;5018166;28;20421;-66
2022/01/17 10:44:00;;;;;;;3.97;2.50;;;;;;;-148.16;100.00;58328.31;5030079;28;20053;-65
2022/01/17 10:46:46;;;;;;;7.78;3.30;;;;;;;-148.16;100.00;58328.31;5033066;28;20042;-64
2022/01/17 10:49:59;;;;;;;6.65;3.20;;;;;;;-148.16;100.00;58328.31;5032655;28;20041;-64
2022/01/17 10:52:48;;;;;;;5.53;2.58;;;;;;;-148.16;100.00;58328.31;5032195;28;20041;-64
2022/01/17 10:56:07;;;;;;;5.38;2.40;;;;;;;-148.16;100.00;58328.31;5027796;28;20046;-62
2022/01/17 10:59:04;;;;;;;8.20;3.30;;;;;;;-148.16;100.00;58328.31;5029465;28;20481;-62
2022/01/17 11:01:55;;;;;;;5.65;2.40;;;;;;;-148.16;100.00;58328.31;5030542;28;20045;-63
2022/01/17 11:04:41;;;;;;;5.10;2.60;;;;;;;-148.16;100.00;58328.31;5031501;28;20397;-61
2022/01/17 11:07:28;;;;;;;3.58;1.73;;;;;;;-148.16;100.00;58328.31;5037341;28;20485;-65
2022/01/17 11:10:24;;;;;;;4.72;3.05;;;;;;;-148.16;100.00;58328.31;5019310;28;20053;-62
2022/01/17 11:13:12;;;;;;;7.28;2.72;;;;;;;-148.16;100.00;58328.31;5039416;28;20053;-63
2022/01/17 11:16:03;;;;;;;5.97;2.63;;;;;;;-148.16;100.00;58328.31;5031814;28;20038;-65
2022/01/17 11:18:58;;;;;;;7.78;3.58;;;;;;;-148.16;100.00;58328.31;5028978;28;20045;-62
2022/01/17 11:21:44;;;;;;;5.70;2.60;;;;;;;-148.16;100.00;58328.31;5031912;28;20041;-62
2022/01/17 11:24:31;;;;;;;4.72;2.25;;;;;;;-148.16;100.00;58328.31;5033062;28;20045;-61
2022/01/17 11:27:16;;;;;;;6.47;3.50;;;;;;;-148.16;100.00;58328.31;5032098;28;20041;-62
2022/01/17 11:30:04;;;;;;;6.43;3.00;;;;;;;-148.16;100.00;58328.31;5023274;28;20071;-64
2022/01/17 11:32:54;;;;;;;5.30;3.00;;;;;;;-148.16;100.00;58328.31;5032423;28;20053;-63
2022/01/17 11:35:42;;;;;;;4.63;2.35;;;;;;;-148.16;100.00;58328.31;5032503;28;20045;-62
2022/01/17 11:38:36;;;;;;;4.25;3.20;;;;;;;-148.16;100.00;58328.31;5031821;28;20053;-62
2022/01/17 11:41:36;;;;;;;6.25;2.97;;;;;;;-148.16;100.00;58328.31;5031380;28;20046;-60
2022/01/17 11:44:33;;;;;;;6.05;3.35;;;;;;;-148.16;100.00;58328.31;5031890;28;20497;-61
2022/01/17 11:47:51;;;;;;;6.55;3.35;;;;;;;-148.16;100.00;58328.31;5037049;28;20042;-60
2022/01/17 11:50:43;;;;;;;5.63;3.50;;;;;;;-148.16;100.00;58328.31;5031156;28;20053;-60
2022/01/17 11:53:29;;;;;;;5.20;2.47;;;;;;;-148.16;100.00;58328.31;5029987;28;20045;-61
2022/01/17 11:56:33;;;;;;;5.65;3.28;;;;;;;-148.16;100.00;58328.31;5022635;28;20420;-59
2022/01/17 11:59:28;;;;;;;4.47;2.28;;;;;;;-148.16;100.00;58328.31;5020011;28;20793;-62
2022/01/17 12:02:18;;;;;;;5.82;3.13;;;;;;;-148.16;100.00;58328.31;5028146;28;20049;-60
2022/01/17 12:05:06;;;;;;;5.13;3.22;;;;;;;-148.16;100.00;58328.31;5030106;28;20042;-60
2022/01/17 12:07:56;;;;;;;4.25;2.50;;;;;;;-148.16;100.00;58328.31;5029583;28;20408;-60
2022/01/17 12:11:02;;;;;;;5.43;2.58;;;;;;;-148.16;100.00;58328.31;5029441;28;20053;-59
2022/01/17 12:13:48;;;;;;;5.45;2.92;;;;;;;-148.16;100.00;58328.31;5029354;28;20493;-59
2022/01/17 12:16:36;;;;;;;6.22;2.85;;;;;;;-148.16;100.00;58328.31;5030008;28;20053;-62
2022/01/17 12:19:22;;;;;;;4.50;1.77;;;;;;;-148.16;100.00;58328.31;5035286;28;20038;-60
2022/01/17 12:22:08;;;;;;;4.18;2.38;;;;;;;-148.16;100.00;58328.31;5030059;28;20037;-68
2022/01/17 12:24:54;;;;;;;5.32;2.60;;;;;;;-148.16;100.00;58328.31;5028098;28;20037;-59
2022/01/17 12:27:40;;;;;;;5.22;2.50;;;;;;;-148.16;100.00;58328.31;5026424;28;20041;-64
2022/01/17 12:30:53;;;;;;;5.25;2.60;;;;;;;-148.16;100.00;58328.31;5038196;28;20049;-59
2022/01/17 12:33:40;;;;;;;7.53;2.90;;;;;;;-148.16;100.00;58328.31;5032352;28;20037;-59
2022/01/17 12:36:29;;;;;;;7.25;2.90;;;;;;;-148.16;100.00;58328.31;5034648;28;20042;-60
2022/01/17 12:39:27;;;;;;;5.53;2.90;;;;;;;-148.16;100.00;58328.31;5034425;28;20481;-59
2022/01/17 12:42:13;;;;;;;3.40;1.98;;;;;;;-148.16;100.00;58328.31;5032411;28;20053;-59
2022/01/17 12:45:03;;;;;;;5.70;2.67;;;;;;;-148.16;100.00;58328.31;5034058;28;20417;-60
2022/01/17 12:47:50;;;;;;;6.28;3.50;;;;;;;-148.16;100.00;58328.31;5034366;28;20481;-61
2022/01/17 12:50:39;;;;;;;8.75;3.33;;;;;;;-148.16;100.00;58328.31;5035499;28;20489;-61
2022/01/17 12:53:27;;;;;;;5.90;2.55;;;;;;;-148.16;100.00;58328.31;5034140;28;20049;-61
2022/01/17 12:56:14;;;;;;;7.95;3.42;;;;;;;-148.16;100.00;58328.31;5034225;28;20049;-60
2022/01/17 12:59:02;;;;;;;8.57;3.20;;;;;;;-148.16;100.00;58328.31;5040158;28;20500;-60
2022/01/17 13:01:51;;;;;;;6.47;3.22;;;;;;;-148.16;100.00;58328.31;5033649;28;20049;-60
2022/01/17 13:04:36;;;;;;;5.97;2.63;;;;;;;-148.16;100.00;58328.31;5032489;28;20049;-62
2022/01/17 13:07:25;;;;;;;5.80;2.95;;;;;;;-148.16;100.00;58328.31;5032875;28;20045;-61
2022/01/17 13:10:11;;;;;;;5.68;2.70;;;;;;;-148.16;100.00;58328.31;5034222;28;20053;-60
2022/01/17 13:12:57;;;;;;;6.40;3.42;;;;;;;-148.16;100.00;58328.31;5034047;28;20041;-60
2022/01/17 13:16:10;;;;;;;5.95;3.22;;;;;;;-148.16;100.00;58328.31;5032744;28;20045;-60
2022/01/17 13:19:04;;;;;;;6.85;3.00;;;;;;;-148.16;100.00;58328.31;5032672;28;20041;-63
2022/01/17 13:21:51;;;;;;;5.68;3.35;;;;;;;-148.16;100.00;58328.31;5031925;28;20049;-61
2022/01/17 13:24:51;;;;;;;4.47;2.67;;;;;;;-148.16;100.00;58328.31;5029403;28;20033;-60
2022/01/17 13:27:42;;;;;;;5.40;3.50;;;;;;;-148.16;100.00;58328.31;5032850;28;20042;-61